METAR Data
IDs: Format: Raw Decoded Include TAF

Data at: 0241 UTC 20 Jan 2022

KPAE 200153Z 14007KT 10SM OVC023 09/06 A3026 RMK AO2 RAB12E30 SLP248 P0000 T00940056

KPAE 192322Z 2000/2024 15010KT P6SM BKN025 OVC040
  TEMPO 2000/2004 5SM -RA BR OVC020
  FM200600 18012KT P6SM -RA OVC015
  FM201000 17014G23KT 5SM -RA BR OVC015
  FM201800 22010KT P6SM OVC015


KAWO 200156Z AUTO 00000KT 10SM -RA OVC036 09/07 A3026 RMK AO2 RAB27 SLP253 T00890067 PNO $
No TAF found for KAWO

KBFI 200153Z 00000KT 10SM OVC026 09/07 A3027 RMK AO2 SLP249 T00940067

KBFI 200239Z 2003/2024 VRB03KT P6SM OVC025
  TEMPO 2003/2006 -RA OVC020
  FM200600 18010KT P6SM -RA OVC020
  TEMPO 2006/2010 5SM BR OVC015
  FM201200 16009G18KT P6SM -RA OVC020
  FM201800 20010G20KT P6SM OVC020


KRNT 200153Z 00000KT 10SM OVC029 09/07 A3026 RMK AO2 SLP252 T00940067
No TAF found for KRNT

KSEA 200153Z 26003KT 10SM OVC021 08/06 A3026 RMK AO2 SLP256 T00830061

KSEA 192322Z 2000/2106 15008KT P6SM SCT015 OVC030
  TEMPO 2002/2006 -RA OVC015
  FM200600 18010KT P6SM -RA OVC015
  TEMPO 2006/2010 5SM BR OVC010
  FM201800 22013G22KT P6SM OVC015